createdAt,value
2022-09-26T00:01:04.989Z,12.80
2022-09-26T00:03:32.346Z,13.30
2022-09-26T00:06:04.020Z,14.00
2022-09-26T00:08:31.367Z,13.20
2022-09-26T00:10:58.981Z,13.20
2022-09-26T00:13:26.763Z,13.10
2022-09-26T00:15:54.598Z,13.20
2022-09-26T00:18:22.116Z,14.00
2022-09-26T00:20:49.476Z,13.20
2022-09-26T00:23:17.014Z,14.40
2022-09-26T00:25:52.814Z,13.10
2022-09-26T00:28:19.913Z,13.20
2022-09-26T00:30:47.063Z,13.20
2022-09-26T00:33:14.196Z,13.20
2022-09-26T00:35:41.443Z,12.70
2022-09-26T00:38:08.484Z,13.10
2022-09-26T00:40:36.068Z,13.10
2022-09-26T00:43:03.140Z,13.10
2022-09-26T00:45:31.978Z,13.10
2022-09-26T00:48:03.663Z,13.10
2022-09-26T00:50:32.846Z,13.10
2022-09-26T00:53:02.673Z,13.10
2022-09-26T00:55:31.383Z,13.00
2022-09-26T00:58:06.970Z,13.10
2022-09-26T01:00:34.324Z,13.00
2022-09-26T01:03:02.001Z,12.90
2022-09-26T01:05:29.277Z,12.90
2022-09-26T01:07:57.053Z,12.90
2022-09-26T01:10:24.628Z,12.80
2022-09-26T01:12:52.418Z,12.80
2022-09-26T01:15:19.757Z,12.80
2022-09-26T01:17:46.886Z,12.80
2022-09-26T01:20:19.984Z,12.80
2022-09-26T01:23:13.504Z,12.80
2022-09-26T01:25:59.336Z,12.80
2022-09-26T01:28:46.865Z,12.80
2022-09-26T01:31:16.927Z,12.80
2022-09-26T01:33:43.990Z,12.80
2022-09-26T01:36:18.343Z,12.80
2022-09-26T01:38:56.301Z,12.80
2022-09-26T01:41:42.156Z,12.80
2022-09-26T01:44:27.936Z,12.80
2022-09-26T01:47:01.195Z,12.80
2022-09-26T01:49:28.332Z,12.80
2022-09-26T01:52:02.950Z,12.80
2022-09-26T01:54:37.940Z,12.80
2022-09-26T01:57:06.733Z,13.40
2022-09-26T01:59:45.891Z,12.60
2022-09-26T02:02:19.253Z,12.80
2022-09-26T02:04:48.567Z,12.70
2022-09-26T02:07:18.124Z,12.80
2022-09-26T02:09:47.998Z,12.70
2022-09-26T02:12:20.121Z,12.80
2022-09-26T02:14:47.829Z,12.80
2022-09-26T02:17:16.963Z,13.40
2022-09-26T02:19:52.683Z,12.80
2022-09-26T02:22:20.081Z,12.80
2022-09-26T02:24:47.158Z,12.80
2022-09-26T02:27:14.262Z,12.80
2022-09-26T02:29:41.471Z,13.40
2022-09-26T02:32:15.503Z,12.80
2022-09-26T02:34:43.754Z,12.90
2022-09-26T02:37:12.019Z,12.90
2022-09-26T02:39:39.314Z,12.90
2022-09-26T02:42:14.628Z,12.90
2022-09-26T02:44:44.470Z,13.00
2022-09-26T02:47:20.738Z,12.90
2022-09-26T02:50:08.338Z,12.80
2022-09-26T02:52:53.513Z,12.80
2022-09-26T02:55:30.808Z,12.80
2022-09-26T02:58:06.319Z,12.80
2022-09-26T03:00:52.876Z,12.70
2022-09-26T03:03:24.753Z,12.70
2022-09-26T03:05:53.780Z,12.70
2022-09-26T03:08:23.206Z,12.70
2022-09-26T03:10:51.656Z,12.70
2022-09-26T03:13:19.165Z,12.80
2022-09-26T03:15:49.150Z,13.70
2022-09-26T03:18:21.160Z,13.20
2022-09-26T03:20:48.653Z,12.70
2022-09-26T03:23:16.067Z,12.70
2022-09-26T03:25:43.142Z,12.60
2022-09-26T03:28:10.560Z,13.30
2022-09-26T03:30:38.443Z,12.70
2022-09-26T03:33:05.518Z,12.70
2022-09-26T03:35:32.620Z,12.70
2022-09-26T03:37:59.669Z,12.70
2022-09-26T03:40:26.852Z,12.70
2022-09-26T03:42:54.471Z,12.70
2022-09-26T03:45:21.699Z,12.80
2022-09-26T03:47:54.994Z,12.70
2022-09-26T03:50:22.054Z,12.70
2022-09-26T03:52:49.168Z,12.70
2022-09-26T03:55:16.344Z,12.60
2022-09-26T03:57:43.384Z,12.60
2022-09-26T04:00:10.784Z,12.50
2022-09-26T04:02:37.916Z,12.50
2022-09-26T04:05:05.184Z,12.50
2022-09-26T04:07:32.235Z,12.80
2022-09-26T04:09:59.289Z,12.40
2022-09-26T04:12:27.131Z,12.40
2022-09-26T04:14:54.474Z,12.40
2022-09-26T04:17:21.523Z,12.30
2022-09-26T04:19:48.743Z,12.30
2022-09-26T04:22:15.784Z,12.30
2022-09-26T04:24:42.818Z,12.30
2022-09-26T04:27:09.872Z,12.10
2022-09-26T04:29:37.000Z,13.00
2022-09-26T04:32:04.118Z,12.20
2022-09-26T04:34:31.281Z,12.20
2022-09-26T04:37:00.359Z,12.20
2022-09-26T04:39:27.413Z,12.30
2022-09-26T04:41:54.556Z,12.20
2022-09-26T04:44:21.650Z,12.20
2022-09-26T04:46:48.671Z,12.30
2022-09-26T04:49:15.855Z,12.20
2022-09-26T04:51:43.110Z,12.30
2022-09-26T04:54:10.169Z,12.20
2022-09-26T04:56:37.248Z,12.20
2022-09-26T04:59:04.419Z,11.70
2022-09-26T05:01:31.577Z,12.20
2022-09-26T05:03:58.853Z,12.30
2022-09-26T05:06:25.983Z,12.20
2022-09-26T05:08:53.542Z,12.30
2022-09-26T05:11:21.706Z,12.30
2022-09-26T05:13:53.760Z,12.30
2022-09-26T05:16:21.613Z,12.30
2022-09-26T05:18:49.542Z,12.30
2022-09-26T05:21:16.690Z,12.30
2022-09-26T05:24:02.160Z,12.90
2022-09-26T05:26:46.222Z,12.30
2022-09-26T05:29:20.465Z,12.20
2022-09-26T05:31:47.751Z,12.30
2022-09-26T05:34:19.440Z,12.30
2022-09-26T05:36:47.356Z,12.30
2022-09-26T05:39:33.189Z,12.30
2022-09-26T05:42:01.481Z,12.40
2022-09-26T05:44:30.133Z,12.50
2022-09-26T05:46:57.631Z,12.40
2022-09-26T05:49:25.196Z,12.40
2022-09-26T05:51:53.270Z,12.50
2022-09-26T05:54:20.388Z,12.50
2022-09-26T05:56:47.483Z,12.50
2022-09-26T05:59:14.740Z,12.50
2022-09-26T06:01:41.978Z,12.50
2022-09-26T06:04:09.665Z,12.60
2022-09-26T06:06:36.759Z,12.60
2022-09-26T06:09:03.936Z,12.60
2022-09-26T06:11:31.247Z,12.50
2022-09-26T06:14:00.704Z,13.20
2022-09-26T06:16:28.583Z,12.60
2022-09-26T06:18:55.987Z,12.60
2022-09-26T06:21:23.802Z,12.60
2022-09-26T06:23:50.928Z,12.70
2022-09-26T06:26:21.641Z,12.70
2022-09-26T06:28:51.912Z,12.70
2022-09-26T06:31:19.092Z,12.60
2022-09-26T06:33:50.077Z,12.70
2022-09-26T06:36:17.160Z,12.80
2022-09-26T06:38:44.275Z,12.70
2022-09-26T06:41:11.337Z,12.80
2022-09-26T06:43:39.759Z,12.80
2022-09-26T06:46:09.591Z,12.70
2022-09-26T06:48:36.722Z,12.80
2022-09-26T06:51:03.904Z,12.80
2022-09-26T06:53:31.463Z,12.80
2022-09-26T06:55:59.222Z,12.80
2022-09-26T06:58:26.376Z,12.80
2022-09-26T07:00:53.605Z,12.80
2022-09-26T07:03:20.892Z,12.80
2022-09-26T07:05:47.991Z,12.90
2022-09-26T07:08:15.083Z,12.80
2022-09-26T07:10:42.822Z,12.80
2022-09-26T07:13:10.313Z,12.80
2022-09-26T07:15:37.697Z,12.80
2022-09-26T07:18:06.445Z,12.80
2022-09-26T07:20:36.389Z,12.80
2022-09-26T07:23:04.590Z,12.80
2022-09-26T07:25:32.232Z,12.60
2022-09-26T07:27:59.512Z,12.70
2022-09-26T07:30:26.740Z,12.60
2022-09-26T07:32:59.113Z,12.60
2022-09-26T07:35:29.161Z,12.60
2022-09-26T07:37:56.526Z,12.60
2022-09-26T07:40:24.143Z,12.60
2022-09-26T07:43:15.440Z,12.70
2022-09-26T07:45:58.433Z,12.60
2022-09-26T07:48:44.035Z,12.70
2022-09-26T07:51:11.854Z,12.70
2022-09-26T07:53:41.268Z,12.80
2022-09-26T07:56:12.246Z,12.80
2022-09-26T07:58:40.367Z,12.80
2022-09-26T08:01:11.526Z,12.80
2022-09-26T08:03:39.725Z,12.80
2022-09-26T08:06:07.263Z,12.50
2022-09-26T08:08:34.673Z,12.90
2022-09-26T08:11:04.254Z,12.90
2022-09-26T08:13:32.625Z,12.80
2022-09-26T08:16:04.404Z,14.00
2022-09-26T08:18:32.534Z,12.80
2022-09-26T08:20:59.669Z,12.80
2022-09-26T08:23:26.810Z,12.90
2022-09-26T08:25:53.984Z,12.90
2022-09-26T08:28:21.088Z,11.90
2022-09-26T08:30:48.129Z,12.90
2022-09-26T08:33:15.301Z,13.00
2022-09-26T08:35:42.354Z,12.90
2022-09-26T08:38:09.407Z,12.90
2022-09-26T08:40:46.635Z,12.90
2022-09-26T08:43:19.836Z,12.90
2022-09-26T08:46:11.567Z,12.90
2022-09-26T08:48:45.108Z,12.90
2022-09-26T08:51:33.961Z,12.90
2022-09-26T08:54:06.559Z,12.90
2022-09-26T08:56:40.423Z,12.90
2022-09-26T08:59:12.688Z,13.00
2022-09-26T09:01:41.638Z,13.00
2022-09-26T09:04:17.628Z,13.10
2022-09-26T09:06:44.928Z,12.50
2022-09-26T09:09:16.170Z,13.30
2022-09-26T09:12:06.614Z,13.30
2022-09-26T09:15:13.887Z,13.40
2022-09-26T09:17:54.660Z,13.40
2022-09-26T09:20:40.356Z,13.50
2022-09-26T09:23:19.623Z,13.50
2022-09-26T09:28:58.370Z,13.50
2022-09-26T09:31:27.270Z,14.00
2022-09-26T09:33:58.854Z,13.50
2022-09-26T09:36:29.026Z,13.60
2022-09-26T09:38:58.653Z,13.50
2022-09-26T09:41:36.945Z,13.60
2022-09-26T09:44:05.747Z,13.40
2022-09-26T09:46:35.838Z,13.60
2022-09-26T09:49:09.600Z,13.70
2022-09-26T09:51:55.349Z,13.80
2022-09-26T09:54:37.468Z,13.80
2022-09-26T09:57:21.328Z,13.80
2022-09-26T10:00:05.295Z,13.90
2022-09-26T10:02:37.605Z,13.90
2022-09-26T10:05:24.273Z,13.90
2022-09-26T10:07:57.702Z,13.30
2022-09-26T10:10:37.895Z,13.70
2022-09-26T10:13:06.732Z,13.60
2022-09-26T10:15:36.396Z,13.60
2022-09-26T10:18:24.550Z,13.60
2022-09-26T10:20:53.959Z,13.60
2022-09-26T10:23:23.276Z,13.60
2022-09-26T10:25:51.847Z,13.60
2022-09-26T10:28:34.027Z,13.70
2022-09-26T10:31:07.871Z,13.80
2022-09-26T10:33:36.363Z,13.90
2022-09-26T10:36:18.274Z,13.90
2022-09-26T10:39:30.201Z,13.90
2022-09-26T10:41:58.732Z,13.90
2022-09-26T10:44:27.305Z,14.60
2022-09-26T10:46:57.781Z,14.10
2022-09-26T10:49:28.376Z,14.10
2022-09-26T10:52:19.045Z,14.10
2022-09-26T10:54:53.996Z,14.00
2022-09-26T10:57:23.316Z,13.90
2022-09-26T10:59:51.658Z,14.00
2022-09-26T11:02:21.974Z,13.60
2022-09-26T11:05:11.008Z,14.40
2022-09-26T11:07:40.091Z,13.70
2022-09-26T11:10:10.236Z,13.90
2022-09-26T11:12:39.734Z,14.00
2022-09-26T11:15:13.838Z,13.50
2022-09-26T11:17:43.449Z,14.10
2022-09-26T11:20:19.603Z,13.90
2022-09-26T11:22:54.422Z,13.70
2022-09-26T11:25:25.597Z,13.60
2022-09-26T11:27:57.952Z,13.50
2022-09-26T11:30:26.285Z,13.50
2022-09-26T11:32:56.078Z,13.40
2022-09-26T11:35:43.565Z,13.50
2022-09-26T11:38:29.403Z,13.50
2022-09-26T11:41:07.296Z,13.50
2022-09-26T11:43:51.339Z,13.60
2022-09-26T11:46:38.928Z,13.60
2022-09-26T11:49:06.248Z,13.60
2022-09-26T11:51:52.419Z,13.80
2022-09-26T11:54:33.886Z,13.90
2022-09-26T11:57:15.413Z,13.90
2022-09-26T11:59:45.320Z,13.90
2022-09-26T12:02:16.220Z,13.90
2022-09-26T12:04:52.673Z,13.90
2022-09-26T12:07:22.930Z,14.00
2022-09-26T12:09:52.905Z,14.10
2022-09-26T12:12:35.885Z,14.20
2022-09-26T12:15:22.070Z,14.20
2022-09-26T12:17:49.608Z,14.20
2022-09-26T12:20:19.823Z,14.30
2022-09-26T12:22:52.333Z,14.30
2022-09-26T12:25:57.928Z,14.20
2022-09-26T12:28:42.800Z,14.40
2022-09-26T12:31:29.198Z,14.40
2022-09-26T12:34:05.384Z,14.40
2022-09-26T12:37:01.908Z,14.40
2022-09-26T12:39:51.722Z,14.40
2022-09-26T12:42:26.560Z,14.40
2022-09-26T12:44:59.675Z,14.50
2022-09-26T12:47:48.928Z,14.40
2022-09-26T12:50:17.673Z,14.20
2022-09-26T12:53:00.129Z,14.40
2022-09-26T12:55:45.865Z,14.30
2022-09-26T12:58:31.530Z,14.30
2022-09-26T13:00:58.786Z,14.30
2022-09-26T13:03:37.968Z,14.90
2022-09-26T13:06:20.276Z,14.30
2022-09-26T13:08:53.349Z,14.30
2022-09-26T13:11:35.371Z,14.30
2022-09-26T13:14:09.777Z,14.30
2022-09-26T13:16:42.647Z,14.40
2022-09-26T13:19:27.873Z,14.40
2022-09-26T13:22:02.816Z,14.40
2022-09-26T13:24:50.159Z,14.40
2022-09-26T13:27:21.242Z,14.40
2022-09-26T13:29:53.232Z,14.50
2022-09-26T13:32:23.241Z,14.40
2022-09-26T13:34:53.283Z,14.50
2022-09-26T13:37:36.862Z,14.40
2022-09-26T13:40:22.789Z,14.20
2022-09-26T13:43:24.392Z,14.00
2022-09-26T13:46:05.746Z,13.70
2022-09-26T13:48:37.496Z,13.50
2022-09-26T13:51:08.291Z,13.40
2022-09-26T13:53:38.243Z,13.30
2022-09-26T13:56:24.232Z,13.20
2022-09-26T13:59:02.749Z,13.20
2022-09-26T14:01:30.374Z,13.20
2022-09-26T14:04:17.665Z,13.20
2022-09-26T14:07:03.612Z,13.20
2022-09-26T14:09:41.721Z,13.20
2022-09-26T14:12:30.946Z,13.30
2022-09-26T14:15:15.495Z,13.30
2022-09-26T14:17:42.748Z,13.40
2022-09-26T14:20:39.596Z,13.40
2022-09-26T14:23:26.599Z,13.50
2022-09-26T14:25:55.048Z,13.60
2022-09-26T14:28:31.805Z,14.60
2022-09-26T14:31:31.582Z,12.40
2022-09-26T14:34:11.248Z,13.70
2022-09-26T14:36:38.471Z,13.70
2022-09-26T14:39:05.794Z,13.80
2022-09-26T14:41:34.693Z,13.80
2022-09-26T14:44:03.243Z,13.80
2022-09-26T14:46:33.235Z,13.80
2022-09-26T14:49:03.233Z,13.80
2022-09-26T14:51:32.405Z,14.60
2022-09-26T14:54:19.217Z,13.80
2022-09-26T14:56:51.136Z,13.80
2022-09-26T14:59:24.277Z,13.90
2022-09-26T15:01:52.401Z,13.90
2022-09-26T15:04:24.034Z,13.90
2022-09-26T15:06:52.841Z,13.70
2022-09-26T15:09:24.804Z,13.70
2022-09-26T15:11:55.262Z,13.80
2022-09-26T15:14:30.687Z,13.80
2022-09-26T15:17:00.739Z,13.70
2022-09-26T15:19:32.725Z,13.80
2022-09-26T15:22:18.989Z,13.70
2022-09-26T15:24:46.310Z,13.70
2022-09-26T15:27:16.156Z,13.70
2022-09-26T15:29:46.419Z,13.70
2022-09-26T15:32:19.590Z,13.80
2022-09-26T15:34:47.341Z,13.70
2022-09-26T15:37:17.322Z,13.70
2022-09-26T15:39:44.580Z,13.70
2022-09-26T15:42:37.851Z,13.80
2022-09-26T15:45:15.846Z,13.70
2022-09-26T15:47:44.302Z,13.70
2022-09-26T15:50:26.462Z,13.70
2022-09-26T15:52:56.956Z,13.70
2022-09-26T15:55:34.703Z,13.60
2022-09-26T15:58:04.659Z,13.70
2022-09-26T16:00:34.217Z,13.60
2022-09-26T16:03:17.841Z,13.30
2022-09-26T16:05:47.533Z,13.50
2022-09-26T16:08:20.736Z,13.50
2022-09-26T16:10:55.123Z,13.40
2022-09-26T16:13:25.586Z,13.50
2022-09-26T16:16:19.590Z,13.50
2022-09-26T16:18:54.050Z,13.50
2022-09-26T16:21:23.034Z,13.50
2022-09-26T16:23:51.748Z,13.50
2022-09-26T16:26:30.179Z,13.80
2022-09-26T16:28:58.565Z,13.50
2022-09-26T16:31:36.392Z,13.50
2022-09-26T16:34:05.570Z,13.50
2022-09-26T16:36:34.872Z,13.50
2022-09-26T16:39:21.106Z,13.40
2022-09-26T16:42:03.258Z,13.40
2022-09-26T16:44:35.922Z,13.40
2022-09-26T16:47:05.693Z,13.50
2022-09-26T16:49:39.895Z,13.50
2022-09-26T16:52:19.036Z,13.50
2022-09-26T16:54:46.706Z,13.50
2022-09-26T16:57:18.207Z,13.50
2022-09-26T16:59:46.316Z,13.50
2022-09-26T17:02:14.706Z,13.50
2022-09-26T17:04:42.970Z,13.50
2022-09-26T17:07:14.951Z,13.50
2022-09-26T17:09:42.874Z,13.50
2022-09-26T17:12:22.383Z,13.50
2022-09-26T17:14:52.131Z,13.50
2022-09-26T17:17:25.396Z,13.50
2022-09-26T17:19:59.085Z,13.40
2022-09-26T17:22:26.733Z,13.40
2022-09-26T17:24:54.375Z,13.40
2022-09-26T17:27:23.388Z,13.40
2022-09-26T17:29:51.727Z,13.40
2022-09-26T17:32:23.361Z,13.50
2022-09-26T17:34:52.256Z,13.40
2022-09-26T17:37:20.020Z,13.40
2022-09-26T17:39:47.080Z,13.40
2022-09-26T17:42:15.209Z,13.40
2022-09-26T17:44:43.315Z,13.40
2022-09-26T17:47:10.424Z,13.50
2022-09-26T17:49:38.032Z,13.40
2022-09-26T17:52:11.983Z,13.90
2022-09-26T17:54:42.725Z,13.40
2022-09-26T17:57:12.638Z,13.40
2022-09-26T17:59:42.169Z,13.40
2022-09-26T18:02:15.383Z,13.40
2022-09-26T18:04:42.732Z,14.10
2022-09-26T18:07:15.627Z,13.30
2022-09-26T18:09:43.402Z,12.30
2022-09-26T18:12:15.542Z,14.30
2022-09-26T18:14:42.618Z,13.40
2022-09-26T18:17:14.140Z,13.40
2022-09-26T18:19:41.405Z,13.40
2022-09-26T18:22:15.263Z,13.40
2022-09-26T18:24:45.373Z,13.30
2022-09-26T18:27:13.983Z,13.40
2022-09-26T18:29:42.200Z,13.40
2022-09-26T18:32:13.954Z,13.40
2022-09-26T18:34:41.171Z,13.40
2022-09-26T18:37:08.527Z,13.30
2022-09-26T18:39:36.614Z,13.30
2022-09-26T18:42:06.208Z,13.30
2022-09-26T18:44:35.178Z,13.30
2022-09-26T18:47:03.765Z,13.30
2022-09-26T18:49:31.325Z,13.30
2022-09-26T18:51:58.378Z,13.30
2022-09-26T18:54:26.041Z,14.00
2022-09-26T18:57:11.788Z,13.20
2022-09-26T18:59:38.904Z,13.30
2022-09-26T19:02:14.234Z,13.30
2022-09-26T19:04:41.449Z,13.30
2022-09-26T19:07:08.525Z,13.30
2022-09-26T19:09:36.286Z,13.30
2022-09-26T19:12:03.508Z,13.30
2022-09-26T19:14:31.691Z,13.30
2022-09-26T19:16:58.899Z,13.30
2022-09-26T19:19:28.794Z,13.20
2022-09-26T19:21:58.936Z,13.30
2022-09-26T19:24:34.426Z,13.20
2022-09-26T19:27:07.324Z,13.30
2022-09-26T19:29:42.961Z,13.20
2022-09-26T19:32:20.889Z,13.20
2022-09-26T19:34:52.713Z,13.20
2022-09-26T19:37:19.893Z,13.30
2022-09-26T19:39:46.991Z,13.20
2022-09-26T19:42:15.120Z,13.20
2022-09-26T19:44:42.263Z,13.20
2022-09-26T19:47:14.294Z,13.20
2022-09-26T19:49:41.708Z,13.20
2022-09-26T19:52:13.413Z,13.20
2022-09-26T19:54:40.716Z,13.20
2022-09-26T19:57:15.076Z,13.20
2022-09-26T19:59:42.253Z,13.30
2022-09-26T20:02:20.807Z,13.10
2022-09-26T20:04:48.102Z,13.10
2022-09-26T20:07:16.800Z,13.10
2022-09-26T20:09:44.258Z,13.10
2022-09-26T20:12:11.914Z,13.00
2022-09-26T20:14:38.980Z,13.00
2022-09-26T20:17:12.416Z,13.00
2022-09-26T20:19:42.566Z,13.00
2022-09-26T20:22:13.638Z,13.00
2022-09-26T20:24:42.889Z,13.00
2022-09-26T20:27:15.279Z,13.00
2022-09-26T20:30:00.859Z,13.00
2022-09-26T20:32:27.934Z,12.90
2022-09-26T20:34:59.210Z,12.90
2022-09-26T20:37:31.988Z,12.90
2022-09-26T20:40:00.118Z,12.80
2022-09-26T20:42:30.245Z,12.80
2022-09-26T20:44:57.348Z,12.80
2022-09-26T20:47:24.997Z,12.80
2022-09-26T20:49:55.198Z,12.70
2022-09-26T20:52:24.238Z,12.70
2022-09-26T20:54:52.383Z,12.60
2022-09-26T20:57:19.916Z,12.60
2022-09-26T20:59:47.008Z,12.70
2022-09-26T21:02:17.099Z,12.60
2022-09-26T21:04:44.216Z,12.60
2022-09-26T21:07:13.489Z,12.60
2022-09-26T21:09:41.910Z,12.60
2022-09-26T21:12:15.961Z,12.60
2022-09-26T21:14:43.367Z,12.60
2022-09-26T21:17:18.086Z,12.60
2022-09-26T21:19:45.477Z,12.50
2022-09-26T21:22:12.854Z,12.60
2022-09-26T21:24:41.760Z,12.50
2022-09-26T21:27:15.691Z,12.50
2022-09-26T21:29:43.636Z,12.50
2022-09-26T21:32:17.627Z,12.40
2022-09-26T21:34:53.692Z,12.40
2022-09-26T21:37:20.865Z,12.40
2022-09-26T21:39:47.946Z,12.40
2022-09-26T21:42:15.035Z,12.40
2022-09-26T21:44:44.551Z,12.30
2022-09-26T21:47:11.992Z,12.30
2022-09-26T21:49:39.227Z,12.30
2022-09-26T21:52:08.583Z,12.30
2022-09-26T21:54:38.336Z,12.30
2022-09-26T21:57:11.429Z,12.30
2022-09-26T21:59:39.254Z,12.30
2022-09-26T22:02:06.417Z,12.30
2022-09-26T22:04:33.505Z,12.30
2022-09-26T22:07:00.848Z,12.10
2022-09-26T22:09:27.889Z,12.30
2022-09-26T22:11:54.999Z,12.30
2022-09-26T22:14:22.085Z,12.20
2022-09-26T22:16:49.251Z,12.20
2022-09-26T22:19:16.733Z,12.20
2022-09-26T22:21:44.005Z,12.20
2022-09-26T22:24:11.395Z,12.20
2022-09-26T22:26:38.724Z,12.10
2022-09-26T22:29:06.007Z,12.10
2022-09-26T22:31:33.078Z,12.10
2022-09-26T22:34:00.339Z,12.00
2022-09-26T22:36:27.688Z,11.90
2022-09-26T22:38:54.973Z,11.00
2022-09-26T22:41:22.074Z,12.00
2022-09-26T22:43:49.384Z,11.90
2022-09-26T22:46:16.600Z,11.90
2022-09-26T22:48:46.168Z,11.80
2022-09-26T22:51:14.084Z,11.80
2022-09-26T22:53:41.969Z,11.80
2022-09-26T22:56:10.448Z,11.80
2022-09-26T22:58:38.696Z,11.80
2022-09-26T23:01:07.059Z,11.80
2022-09-26T23:03:34.318Z,11.70
2022-09-26T23:06:01.930Z,11.80
2022-09-26T23:08:29.289Z,11.80
2022-09-26T23:10:56.828Z,11.80
2022-09-26T23:13:27.194Z,11.80
2022-09-26T23:15:54.391Z,11.80
2022-09-26T23:18:21.622Z,13.10
2022-09-26T23:20:49.296Z,11.80
2022-09-26T23:23:16.413Z,12.70
2022-09-26T23:25:50.005Z,11.80
2022-09-26T23:28:17.709Z,11.80
2022-09-26T23:30:45.082Z,11.30
2022-09-26T23:33:12.498Z,11.80
2022-09-26T23:35:40.433Z,11.80
2022-09-26T23:38:07.547Z,11.80
2022-09-26T23:40:36.277Z,11.80
2022-09-26T23:43:03.813Z,11.70
2022-09-26T23:45:31.132Z,11.70
2022-09-26T23:47:58.286Z,11.80
2022-09-26T23:50:26.028Z,11.80
2022-09-26T23:52:53.513Z,11.70
2022-09-26T23:55:21.250Z,11.70
2022-09-26T23:57:48.563Z,11.70
